Current Metar reports for airports in our Region

Nearby METAR Reports

Metar reports are mainly used by pilots for information on what is happening at their destination during their pre-flight weather briefings and by meteorologists to assist in short term forecasts. A raw Metar is one of the most universal ways to communicate weather information in the world and are usually transmitted by airports, but some come from permanent sanctioned weather observatories.

Listed below are Metars from airports within 100 miles of our station here in Smethport Pa. The first one of course is the Bradford Regional Airport, then the Olean NY airport and so on. Each airport has it's own table to display it's data and at the bottom of the table is 'Raw' Metar for each airport. Most pilots and weather forecasters can look at the raw data and tell you what is up, but we use a script that handles all of the details for us.

KBFD - Bradford, Pennsylvania, USA
Distance from our station: NW 7mi
Updated: Sun, 24-Sep-2017 9:53pm EDT
Clear
Clear
 Wind from calm
Wind:: Calm
Temperature: 66°F
Dew Point: 64°F
Humidity: 94%
Barometer: 30.19 inHg
Clouds: Clear
Visibility: 10 miles
2017/09/25 01:53 KBFD 250153Z AUTO 00000KT 10SM CLR 19/18 A3019 RMK AO2 SLP209 T01940178
KOLE - Olean, New York, USA
Distance from our station: NNE 37mi
Updated: Sun, 24-Sep-2017 10:15pm EDT
Clear
Clear
 Wind from calm
Wind:: Calm
Temperature: 70°F
Dew Point: 63°F
Humidity: 78%
Barometer: 30.21 inHg
Clouds: Clear
Visibility: 10 miles
2017/09/25 02:15 KOLE 250215Z AUTO 00000KT 10SM CLR 21/17 A3021 RMK AO2
 
KELZ - Wellsville, New York, USA
Distance from our station: NE 40mi
Updated: Sun, 24-Sep-2017 9:56pm EDT
Clear
Clear
 Wind from calm
Wind:: Calm
Temperature: 72°F
Dew Point: 63°F
Humidity: 73%
Barometer: 30.21 inHg
Clouds: Clear
Visibility: 10 miles
2017/09/25 01:56 KELZ 250156Z AUTO 00000KT 10SM CLR 22/17 A3021 RMK AO2 SLP215 T02220172 $
KDUJ - Du Bois, Pennsylvania, USA
Distance from our station: SSW 42mi
Updated: Sun, 24-Sep-2017 9:53pm EDT
Clear
Clear
 Wind from calm
Wind:: Calm
Temperature: 72°F
Dew Point: 64°F
Humidity: 78%
Barometer: 30.15 inHg
Clouds: Clear
Visibility: 10 miles
2017/09/25 01:53 KDUJ 250153Z AUTO 00000KT 10SM CLR 22/18 A3015 RMK AO2 SLP197 T02220178
 
KJHW - Jamestown, New York, USA
Distance from our station: NW 46mi
Updated: Sun, 24-Sep-2017 9:56pm EDT
Clear
Clear
 Wind from ENE
Wind:: ENE 5 mph
Temperature: 73°F
Dew Point: 64°F
Humidity: 74%
Barometer: 30.18 inHg
Clouds: Clear
Visibility: 10 miles
2017/09/25 01:56 KJHW 250156Z AUTO 07004KT 10SM CLR 23/18 A3018 RMK AO2 SLP212 T02330183
KFIG - Clearfield, Pennsylvania, USA
Distance from our station: S 47mi
Updated: Sun, 24-Sep-2017 9:54pm EDT
Clear
Clear
 Wind from N
Wind:: N 8 mph
Temperature: 70°F
Dew Point: 64°F
Humidity: 83%
Barometer: 30.15 inHg
Clouds: Clear
Visibility: 10 miles
2017/09/25 01:54 KFIG 250154Z AUTO 35007KT 10SM CLR 21/18 A3015 RMK AO2 SLP202 T02060178
 
KDKK - Dunkirk, New York, USA
Distance from our station: NW 66mi
Updated: Sun, 24-Sep-2017 9:53pm EDT
Clear
Clear
 Wind from calm
Wind:: Calm
Temperature: 66°F
Dew Point: 64°F
Humidity: 94%
Barometer: 30.11 inHg
Clouds: Clear
Visibility: 10 miles
2017/09/25 01:53 KDKK 250153Z AUTO 00000KT 10SM CLR 19/18 A3011 RMK AO2 SLP194 T01890178 $
KUNV - State College, Pennsylvania, USA
Distance from our station: SSE 71mi
Updated: Sun, 24-Sep-2017 10:15pm EDT
Partly Cloudy
Partly Cloudy
 Wind from calm
Wind:: Calm
Temperature: 72°F
Dew Point: 66°F
Humidity: 83%
Barometer: 30.13 inHg
Clouds: Partly Cloudy
Visibility: 10 miles
Cloud details: Partly Cloudy 7000 ft
Partly Cloudy 8500 ft
2017/09/25 02:15 KUNV 250215Z AUTO 00000KT 10SM SCT070 SCT085 22/19 A3013 RMK AO2 T02230186
 
KFKL - Franklin, Pennsylvania, USA
Distance from our station: WSW 72mi
Updated: Sun, 24-Sep-2017 10:15pm EDT
Clear
Clear
 Wind from NNE
Wind:: NNE 5 mph
Temperature: 72°F
Dew Point: 66°F
Humidity: 83%
Barometer: 30.15 inHg
Clouds: Clear
Visibility: 10 miles
2017/09/25 02:15 KFKL 250215Z 03004KT 10SM CLR 22/19 A3015 RMK AO2 SLP301 PWINO FZRANO RVRNO
KDSV - Dansville, New York, USA
Distance from our station: NE 73mi
Updated: Sun, 24-Sep-2017 9:54pm EDT
Clear
Clear
 Wind from calm
Wind:: Calm
Temperature: 72°F
Dew Point: 64°F
Humidity: 78%
Barometer: 30.14 inHg
Clouds: Clear
Visibility: 10 miles
2017/09/25 01:54 KDSV 250154Z AUTO 00000KT 10SM CLR 22/18 A3014 RMK AO2 SLP210 T02170183
 
KIDI - Indiana/Stewart, Pennsylvania, USA
Distance from our station: SSW 81mi
Updated: Sun, 24-Sep-2017 10:15pm EDT
Clear
Clear
 Wind from calm
Wind:: Calm
Temperature: 68°F
Dew Point: 64°F
Humidity: 88%
Barometer: 30.16 inHg
Clouds: Clear
Visibility: 10 miles
2017/09/25 02:15 KIDI 250215Z AUTO 00000KT 10SM CLR 20/18 A3016 RMK A01
KBUF - Buffalo/Cheektow, New York, USA
Distance from our station: N 84mi
Updated: Sun, 24-Sep-2017 9:54pm EDT
Clear
Clear
 Wind from S
Wind:: S 3 mph
Temperature: 79°F
Dew Point: 68°F
Humidity: 70%
Barometer: 30.11 inHg
Clouds: Clear
Visibility: 10 miles
2017/09/25 01:54 KBUF 250154Z 18003KT 10SM CLR 26/20 A3011 RMK AO2 SLP192 T02560200
 
KGKJ - Meadville, Pennsylvania, USA
Distance from our station: W 86mi
Updated: Sun, 24-Sep-2017 9:53pm EDT
Clear
Clear
 Wind from calm
Wind:: Calm
Temperature: 73°F
Dew Point: 68°F
Humidity: 83%
Barometer: 30.14 inHg
Clouds: Clear
Visibility: 10 miles
2017/09/25 01:53 KGKJ 250153Z AUTO 00000KT 10SM CLR 23/20 A3014 RMK AO2 SLP196 T02330200
KERI - Erie, Pennsylvania, USA
Distance from our station: WNW 87mi
Updated: Sun, 24-Sep-2017 9:51pm EDT
Clear
Clear
 Wind from ENE
Wind:: ENE 3 mph
Temperature: 72°F
Dew Point: 64°F
Humidity: 78%
Barometer: 30.10 inHg
Clouds: Clear
Visibility: 9 miles
2017/09/25 01:51 KERI 250151Z 07003KT 9SM CLR 22/18 A3010 RMK AO2 SLP189 T02220183
 
KELM - Elmira, New York, USA
Distance from our station: ENE 90mi
Updated: Sun, 24-Sep-2017 9:53pm EDT
Clear
Clear
 Wind from calm
Wind:: Calm
Temperature: 68°F
Dew Point: 66°F
Humidity: 94%
Barometer: 30.13 inHg
Clouds: Clear
Visibility: 9 miles
2017/09/25 01:53 KELM 250153Z AUTO 00000KT 9SM CLR 20/19 A3013 RMK AO2 SLP196 T02000194
KIPT - Williamsport, Pennsylvania, USA
Distance from our station: ESE 91mi
Updated: Sun, 24-Sep-2017 9:54pm EDT
Clear
Clear
 Wind from calm
Wind:: Calm
Temperature: 73°F
Dew Point: 68°F
Humidity: 83%
Barometer: 30.09 inHg
Clouds: Clear
Visibility: 10 miles
2017/09/25 01:54 KIPT 250154Z 00000KT 10SM CLR 23/20 A3009 RMK AO2 SLP185 T02280200
 
KBTP - Butler Co., Pennsylvania, USA
Distance from our station: SW 98mi
Updated: Sun, 24-Sep-2017 9:56pm EDT
Clear
Clear
 Wind from calm
Wind:: Calm
Temperature: 70°F
Dew Point: 64°F
Humidity: 83%
Barometer: 30.12 inHg
Clouds: Clear
Visibility: 10 miles
2017/09/25 01:56 KBTP 250156Z AUTO 00000KT 10SM CLR 21/18 A3012 RMK AO2 SLP199 T02060183
KAOO - Altoona, Pennsylvania, USA
Distance from our station: S 99mi
Updated: Sun, 24-Sep-2017 9:53pm EDT
Clear
Clear
 Wind from calm
Wind:: Calm
Temperature: 72°F
Dew Point: 64°F
Humidity: 78%
Barometer: 30.14 inHg
Clouds: Clear
Visibility: 10 miles
2017/09/25 01:53 KAOO 250153Z AUTO 00000KT 10SM CLR 22/18 A3014 RMK AO2 SLP197 T02170183
 
KPIT - Pittsburg, Pennsylvania, USA
Distance from our station: SSW 126mi
Updated: Sun, 24-Sep-2017 9:51pm EDT
Few Clouds
Few Clouds
 Wind from calm
Wind:: Calm
Temperature: 73°F
Dew Point: 63°F
Humidity: 69%
Barometer: 30.11 inHg
Clouds: Few Clouds
Visibility: 10 miles
Cloud details: Few Clouds 25000 ft
2017/09/25 01:51 KPIT 250151Z 00000KT 10SM FEW250 23/17 A3011 RMK AO2 SLP194 T02330172
KCLE - Cleveland, Ohio, USA
Distance from our station: WSW 160mi
Updated: Sun, 24-Sep-2017 9:51pm EDT
Clear
Clear
 Wind from calm
Wind:: Calm
Temperature: 77°F
Dew Point: 66°F
Humidity: 69%
Barometer: 30.10 inHg
Clouds: Clear
Visibility: 10 miles
2017/09/25 01:51 KCLE 250151Z 00000KT 10SM CLR 25/19 A3010 RMK AO2 SLP187 T02500189